sensor_id;sensor_type;location;lat;lon;timestamp;P1;durP1;ratioP1;P2;durP2;ratioP2
9473;SDS011;8865;47.636;7.692;2022-12-29T13:36:33;3.27;;;1.80;;
9473;SDS011;8865;47.636;7.692;2022-12-29T13:39:08;2.37;;;1.90;;
9473;SDS011;8865;47.636;7.692;2022-12-29T13:41:45;2.67;;;1.80;;
9473;SDS011;8865;47.636;7.692;2022-12-29T13:44:30;3.07;;;2.47;;
9473;SDS011;8865;47.636;7.692;2022-12-29T13:47:01;3.23;;;2.50;;
9473;SDS011;8865;47.636;7.692;2022-12-29T13:49:34;5.67;;;3.17;;
9473;SDS011;8865;47.636;7.692;2022-12-29T13:52:09;3.97;;;3.60;;
9473;SDS011;8865;47.636;7.692;2022-12-29T13:57:45;4.10;;;3.10;;
9473;SDS011;8865;47.636;7.692;2022-12-29T14:00:26;2.20;;;2.00;;
9473;SDS011;8865;47.636;7.692;2022-12-29T14:06:02;5.43;;;3.10;;
9473;SDS011;8865;47.636;7.692;2022-12-29T14:08:38;4.83;;;2.80;;
9473;SDS011;8865;47.636;7.692;2022-12-29T14:11:11;7.80;;;5.30;;
9473;SDS011;8865;47.636;7.692;2022-12-29T14:13:40;9.20;;;7.00;;
9473;SDS011;8865;47.636;7.692;2022-12-29T14:16:31;10.40;;;8.90;;
9473;SDS011;8865;47.636;7.692;2022-12-29T14:19:05;9.67;;;6.87;;
9473;SDS011;8865;47.636;7.692;2022-12-29T14:22:13;9.57;;;7.70;;
9473;SDS011;8865;47.636;7.692;2022-12-29T14:24:40;8.83;;;7.93;;
9473;SDS011;8865;47.636;7.692;2022-12-29T14:34:57;7.23;;;4.43;;
9473;SDS011;8865;47.636;7.692;2022-12-29T14:37:25;7.27;;;5.50;;
9473;SDS011;8865;47.636;7.692;2022-12-29T14:40:18;7.90;;;4.33;;
9473;SDS011;8865;47.636;7.692;2022-12-29T14:42:51;5.73;;;3.80;;
9473;SDS011;8865;47.636;7.692;2022-12-29T14:47:47;6.27;;;3.73;;
9473;SDS011;8865;47.636;7.692;2022-12-29T14:58:10;9.30;;;5.37;;
9473;SDS011;8865;47.636;7.692;2022-12-29T15:00:38;6.90;;;5.63;;
9473;SDS011;8865;47.636;7.692;2022-12-29T15:05:52;13.13;;;8.23;;
9473;SDS011;8865;47.636;7.692;2022-12-29T15:08:19;10.10;;;7.00;;
9473;SDS011;8865;47.636;7.692;2022-12-29T15:10:56;7.80;;;5.77;;
9473;SDS011;8865;47.636;7.692;2022-12-29T15:13:40;8.50;;;5.63;;
9473;SDS011;8865;47.636;7.692;2022-12-29T15:19:04;6.40;;;5.17;;
9473;SDS011;8865;47.636;7.692;2022-12-29T15:21:46;9.23;;;5.57;;
9473;SDS011;8865;47.636;7.692;2022-12-29T15:24:13;8.37;;;5.20;;
9473;SDS011;8865;47.636;7.692;2022-12-29T15:26:41;8.30;;;5.50;;
9473;SDS011;8865;47.636;7.692;2022-12-29T15:29:29;9.47;;;6.20;;
9473;SDS011;8865;47.636;7.692;2022-12-29T15:31:58;9.90;;;7.30;;
9473;SDS011;8865;47.636;7.692;2022-12-29T15:34:29;8.60;;;7.73;;
9473;SDS011;8865;47.636;7.692;2022-12-29T15:36:55;8.53;;;7.23;;
9473;SDS011;8865;47.636;7.692;2022-12-29T15:39:28;12.70;;;9.13;;
9473;SDS011;8865;47.636;7.692;2022-12-29T15:41:57;5.77;;;4.90;;
9473;SDS011;8865;47.636;7.692;2022-12-29T15:44:31;8.87;;;6.47;;
9473;SDS011;8865;47.636;7.692;2022-12-29T15:47:24;4.70;;;3.67;;
9473;SDS011;8865;47.636;7.692;2022-12-29T15:49:53;4.97;;;3.50;;
9473;SDS011;8865;47.636;7.692;2022-12-29T15:52:33;5.00;;;2.60;;
9473;SDS011;8865;47.636;7.692;2022-12-29T15:54:59;3.67;;;2.90;;
9473;SDS011;8865;47.636;7.692;2022-12-29T15:57:28;4.40;;;2.30;;
9473;SDS011;8865;47.636;7.692;2022-12-29T15:59:57;1.93;;;1.60;;
9473;SDS011;8865;47.636;7.692;2022-12-29T16:02:25;2.23;;;1.70;;
9473;SDS011;8865;47.636;7.692;2022-12-29T16:04:51;2.30;;;1.50;;
9473;SDS011;8865;47.636;7.692;2022-12-29T16:09:55;3.47;;;2.00;;
9473;SDS011;8865;47.636;7.692;2022-12-29T16:12:29;2.53;;;1.67;;
9473;SDS011;8865;47.636;7.692;2022-12-29T16:15:02;2.80;;;1.80;;
9473;SDS011;8865;47.636;7.692;2022-12-29T16:17:31;3.03;;;1.70;;
9473;SDS011;8865;47.636;7.692;2022-12-29T16:20:03;4.43;;;2.20;;
9473;SDS011;8865;47.636;7.692;2022-12-29T16:22:39;3.47;;;2.10;;
9473;SDS011;8865;47.636;7.692;2022-12-29T16:27:53;5.03;;;2.00;;
9473;SDS011;8865;47.636;7.692;2022-12-29T16:30:21;2.63;;;2.03;;
9473;SDS011;8865;47.636;7.692;2022-12-29T16:32:49;4.40;;;2.33;;
9473;SDS011;8865;47.636;7.692;2022-12-29T16:35:18;6.47;;;3.10;;
9473;SDS011;8865;47.636;7.692;2022-12-29T16:37:46;6.20;;;3.67;;
9473;SDS011;8865;47.636;7.692;2022-12-29T16:42:56;6.20;;;3.60;;
9473;SDS011;8865;47.636;7.692;2022-12-29T16:45:42;5.93;;;3.33;;
9473;SDS011;8865;47.636;7.692;2022-12-29T16:50:41;5.10;;;2.83;;
9473;SDS011;8865;47.636;7.692;2022-12-29T16:53:47;7.60;;;3.33;;
9473;SDS011;8865;47.636;7.692;2022-12-29T16:56:08;5.17;;;4.43;;
9473;SDS011;8865;47.636;7.692;2022-12-29T16:58:47;2.73;;;2.10;;
9473;SDS011;8865;47.636;7.692;2022-12-29T17:01:40;3.40;;;1.77;;
9473;SDS011;8865;47.636;7.692;2022-12-29T17:04:08;2.70;;;1.90;;
9473;SDS011;8865;47.636;7.692;2022-12-29T17:06:36;2.83;;;1.93;;
9473;SDS011;8865;47.636;7.692;2022-12-29T17:09:02;3.50;;;1.90;;
9473;SDS011;8865;47.636;7.692;2022-12-29T17:11:41;2.13;;;1.90;;
9473;SDS011;8865;47.636;7.692;2022-12-29T17:14:20;4.07;;;2.50;;
9473;SDS011;8865;47.636;7.692;2022-12-29T17:16:55;4.00;;;2.70;;
9473;SDS011;8865;47.636;7.692;2022-12-29T17:19:28;5.57;;;3.23;;
9473;SDS011;8865;47.636;7.692;2022-12-29T17:21:58;6.40;;;3.90;;
9473;SDS011;8865;47.636;7.692;2022-12-29T17:24:24;8.93;;;6.10;;
9473;SDS011;8865;47.636;7.692;2022-12-29T17:26:55;10.73;;;6.23;;
9473;SDS011;8865;47.636;7.692;2022-12-29T17:29:38;8.10;;;6.03;;
9473;SDS011;8865;47.636;7.692;2022-12-29T17:32:09;6.67;;;5.10;;
9473;SDS011;8865;47.636;7.692;2022-12-29T17:34:38;7.23;;;5.20;;
9473;SDS011;8865;47.636;7.692;2022-12-29T17:39:46;7.50;;;4.80;;
9473;SDS011;8865;47.636;7.692;2022-12-29T17:42:12;8.40;;;4.80;;
9473;SDS011;8865;47.636;7.692;2022-12-29T17:44:38;7.47;;;5.17;;
9473;SDS011;8865;47.636;7.692;2022-12-29T17:47:04;5.47;;;4.10;;
9473;SDS011;8865;47.636;7.692;2022-12-29T17:49:30;17.63;;;11.50;;
9473;SDS011;8865;47.636;7.692;2022-12-29T17:51:56;14.17;;;8.50;;
9473;SDS011;8865;47.636;7.692;2022-12-29T17:54:23;10.00;;;6.43;;
9473;SDS011;8865;47.636;7.692;2022-12-29T17:56:50;10.20;;;7.33;;
9473;SDS011;8865;47.636;7.692;2022-12-29T17:59:17;12.10;;;8.40;;
9473;SDS011;8865;47.636;7.692;2022-12-29T18:01:44;9.80;;;7.47;;
9473;SDS011;8865;47.636;7.692;2022-12-29T18:04:12;12.33;;;7.77;;
9473;SDS011;8865;47.636;7.692;2022-12-29T18:06:39;11.40;;;7.97;;
9473;SDS011;8865;47.636;7.692;2022-12-29T18:09:06;9.47;;;6.07;;
9473;SDS011;8865;47.636;7.692;2022-12-29T18:11:39;5.47;;;3.43;;
9473;SDS011;8865;47.636;7.692;2022-12-29T18:14:16;16.33;;;10.67;;
9473;SDS011;8865;47.636;7.692;2022-12-29T18:16:42;4.90;;;3.60;;
9473;SDS011;8865;47.636;7.692;2022-12-29T18:19:08;2.37;;;2.10;;
9473;SDS011;8865;47.636;7.692;2022-12-29T18:21:35;2.57;;;2.37;;
9473;SDS011;8865;47.636;7.692;2022-12-29T18:24:01;1.70;;;1.53;;
9473;SDS011;8865;47.636;7.692;2022-12-29T18:26:28;1.33;;;1.20;;
9473;SDS011;8865;47.636;7.692;2022-12-29T18:28:56;1.57;;;1.07;;
9473;SDS011;8865;47.636;7.692;2022-12-29T18:31:24;1.40;;;1.13;;
9473;SDS011;8865;47.636;7.692;2022-12-29T18:33:53;1.77;;;1.40;;
9473;SDS011;8865;47.636;7.692;2022-12-29T18:36:19;3.80;;;1.83;;
9473;SDS011;8865;47.636;7.692;2022-12-29T18:38:46;2.63;;;2.13;;
9473;SDS011;8865;47.636;7.692;2022-12-29T18:41:16;2.30;;;2.10;;
9473;SDS011;8865;47.636;7.692;2022-12-29T18:43:54;2.67;;;1.87;;
9473;SDS011;8865;47.636;7.692;2022-12-29T18:46:20;2.20;;;1.97;;
9473;SDS011;8865;47.636;7.692;2022-12-29T18:48:47;2.10;;;1.30;;
9473;SDS011;8865;47.636;7.692;2022-12-29T18:51:17;1.80;;;1.60;;
9473;SDS011;8865;47.636;7.692;2022-12-29T18:53:45;2.67;;;1.90;;
9473;SDS011;8865;47.636;7.692;2022-12-29T18:56:11;10.17;;;8.10;;
9473;SDS011;8865;47.636;7.692;2022-12-29T18:58:38;8.00;;;6.23;;
9473;SDS011;8865;47.636;7.692;2022-12-29T19:01:04;5.33;;;4.83;;
9473;SDS011;8865;47.636;7.692;2022-12-29T19:03:31;5.80;;;4.67;;
9473;SDS011;8865;47.636;7.692;2022-12-29T19:05:57;5.50;;;5.00;;
9473;SDS011;8865;47.636;7.692;2022-12-29T19:08:24;6.50;;;5.57;;
9473;SDS011;8865;47.636;7.692;2022-12-29T19:10:51;6.73;;;5.20;;
9473;SDS011;8865;47.636;7.692;2022-12-29T19:13:21;6.00;;;5.30;;
9473;SDS011;8865;47.636;7.692;2022-12-29T19:15:53;6.90;;;6.20;;
9473;SDS011;8865;47.636;7.692;2022-12-29T19:18:23;7.77;;;6.47;;
9473;SDS011;8865;47.636;7.692;2022-12-29T19:20:51;8.73;;;7.30;;
9473;SDS011;8865;47.636;7.692;2022-12-29T19:23:19;7.40;;;6.40;;
9473;SDS011;8865;47.636;7.692;2022-12-29T19:25:47;7.53;;;6.60;;
9473;SDS011;8865;47.636;7.692;2022-12-29T19:28:14;11.60;;;7.63;;
9473;SDS011;8865;47.636;7.692;2022-12-29T19:30:46;10.03;;;6.90;;
9473;SDS011;8865;47.636;7.692;2022-12-29T19:33:13;8.73;;;7.10;;
9473;SDS011;8865;47.636;7.692;2022-12-29T19:35:40;9.03;;;7.37;;
9473;SDS011;8865;47.636;7.692;2022-12-29T19:38:07;10.13;;;7.13;;
9473;SDS011;8865;47.636;7.692;2022-12-29T19:40:34;12.73;;;10.47;;
9473;SDS011;8865;47.636;7.692;2022-12-29T19:43:00;10.90;;;8.10;;
9473;SDS011;8865;47.636;7.692;2022-12-29T19:45:27;8.10;;;7.27;;
9473;SDS011;8865;47.636;7.692;2022-12-29T19:47:52;8.87;;;7.00;;
9473;SDS011;8865;47.636;7.692;2022-12-29T19:50:19;10.80;;;7.80;;
9473;SDS011;8865;47.636;7.692;2022-12-29T19:52:45;8.57;;;7.70;;
9473;SDS011;8865;47.636;7.692;2022-12-29T19:55:12;10.83;;;7.20;;
9473;SDS011;8865;47.636;7.692;2022-12-29T19:57:40;11.43;;;7.90;;
9473;SDS011;8865;47.636;7.692;2022-12-29T20:00:06;9.20;;;7.30;;
9473;SDS011;8865;47.636;7.692;2022-12-29T20:02:33;9.93;;;6.70;;
9473;SDS011;8865;47.636;7.692;2022-12-29T20:04:59;6.43;;;4.20;;
9473;SDS011;8865;47.636;7.692;2022-12-29T20:07:25;3.60;;;2.97;;
9473;SDS011;8865;47.636;7.692;2022-12-29T20:09:52;1.80;;;1.60;;
9473;SDS011;8865;47.636;7.692;2022-12-29T20:12:27;2.50;;;1.37;;
9473;SDS011;8865;47.636;7.692;2022-12-29T20:14:53;0.97;;;0.73;;
9473;SDS011;8865;47.636;7.692;2022-12-29T20:17:19;1.40;;;0.97;;
9473;SDS011;8865;47.636;7.692;2022-12-29T20:19:45;0.60;;;0.60;;
9473;SDS011;8865;47.636;7.692;2022-12-29T20:22:11;1.03;;;0.93;;
9473;SDS011;8865;47.636;7.692;2022-12-29T20:24:37;0.77;;;0.73;;
9473;SDS011;8865;47.636;7.692;2022-12-29T20:27:05;1.83;;;0.80;;
9473;SDS011;8865;47.636;7.692;2022-12-29T20:29:38;0.70;;;0.70;;
9473;SDS011;8865;47.636;7.692;2022-12-29T20:32:12;0.60;;;0.60;;
9473;SDS011;8865;47.636;7.692;2022-12-29T20:34:46;0.63;;;0.60;;
9473;SDS011;8865;47.636;7.692;2022-12-29T20:37:13;4.80;;;4.13;;
9473;SDS011;8865;47.636;7.692;2022-12-29T20:39:40;2.47;;;1.60;;
9473;SDS011;8865;47.636;7.692;2022-12-29T20:42:07;1.90;;;0.90;;
9473;SDS011;8865;47.636;7.692;2022-12-29T20:44:33;0.60;;;0.60;;
9473;SDS011;8865;47.636;7.692;2022-12-29T20:47:00;0.77;;;0.60;;
9473;SDS011;8865;47.636;7.692;2022-12-29T20:49:27;1.23;;;0.70;;
9473;SDS011;8865;47.636;7.692;2022-12-29T20:51:55;1.47;;;0.63;;
9473;SDS011;8865;47.636;7.692;2022-12-29T20:54:22;0.80;;;0.70;;
9473;SDS011;8865;47.636;7.692;2022-12-29T20:56:48;0.50;;;0.50;;
9473;SDS011;8865;47.636;7.692;2022-12-29T20:59:17;0.90;;;0.70;;
9473;SDS011;8865;47.636;7.692;2022-12-29T21:01:45;0.70;;;0.70;;
9473;SDS011;8865;47.636;7.692;2022-12-29T21:04:11;1.93;;;0.90;;
9473;SDS011;8865;47.636;7.692;2022-12-29T21:06:37;1.20;;;0.70;;
9473;SDS011;8865;47.636;7.692;2022-12-29T21:09:04;1.60;;;0.60;;
9473;SDS011;8865;47.636;7.692;2022-12-29T21:11:31;0.77;;;0.70;;
9473;SDS011;8865;47.636;7.692;2022-12-29T21:13:57;1.03;;;0.83;;
9473;SDS011;8865;47.636;7.692;2022-12-29T21:16:23;3.50;;;2.50;;
9473;SDS011;8865;47.636;7.692;2022-12-29T21:18:49;1.60;;;1.40;;
9473;SDS011;8865;47.636;7.692;2022-12-29T21:21:17;2.90;;;1.67;;
9473;SDS011;8865;47.636;7.692;2022-12-29T21:23:51;1.80;;;1.70;;
9473;SDS011;8865;47.636;7.692;2022-12-29T21:26:18;1.50;;;1.40;;
9473;SDS011;8865;47.636;7.692;2022-12-29T21:28:48;1.20;;;0.90;;
9473;SDS011;8865;47.636;7.692;2022-12-29T21:31:19;1.90;;;0.70;;
9473;SDS011;8865;47.636;7.692;2022-12-29T21:33:50;0.60;;;0.60;;
9473;SDS011;8865;47.636;7.692;2022-12-29T21:36:16;0.80;;;0.80;;
9473;SDS011;8865;47.636;7.692;2022-12-29T21:38:42;1.43;;;0.70;;
9473;SDS011;8865;47.636;7.692;2022-12-29T21:41:09;3.37;;;0.90;;
9473;SDS011;8865;47.636;7.692;2022-12-29T21:43:37;1.00;;;0.53;;
9473;SDS011;8865;47.636;7.692;2022-12-29T21:46:03;0.63;;;0.50;;
9473;SDS011;8865;47.636;7.692;2022-12-29T21:48:31;0.70;;;0.70;;
9473;SDS011;8865;47.636;7.692;2022-12-29T21:51:06;0.70;;;0.67;;
9473;SDS011;8865;47.636;7.692;2022-12-29T21:53:56;1.50;;;0.80;;
9473;SDS011;8865;47.636;7.692;2022-12-29T21:56:45;0.73;;;0.33;;
9473;SDS011;8865;47.636;7.692;2022-12-29T21:59:13;1.17;;;0.83;;
9473;SDS011;8865;47.636;7.692;2022-12-29T22:02:00;1.37;;;0.90;;
9473;SDS011;8865;47.636;7.692;2022-12-29T22:04:46;0.60;;;0.50;;
9473;SDS011;8865;47.636;7.692;2022-12-29T22:07:31;0.70;;;0.70;;
9473;SDS011;8865;47.636;7.692;2022-12-29T22:10:16;0.70;;;0.70;;
9473;SDS011;8865;47.636;7.692;2022-12-29T22:13:00;2.73;;;0.90;;
9473;SDS011;8865;47.636;7.692;2022-12-29T22:15:28;0.50;;;0.50;;
9473;SDS011;8865;47.636;7.692;2022-12-29T22:17:56;1.37;;;0.50;;
9473;SDS011;8865;47.636;7.692;2022-12-29T22:20:23;1.50;;;0.70;;
9473;SDS011;8865;47.636;7.692;2022-12-29T22:22:51;1.07;;;0.43;;
9473;SDS011;8865;47.636;7.692;2022-12-29T22:25:18;1.87;;;0.60;;
9473;SDS011;8865;47.636;7.692;2022-12-29T22:27:44;1.63;;;0.60;;
9473;SDS011;8865;47.636;7.692;2022-12-29T22:30:11;1.17;;;0.70;;
9473;SDS011;8865;47.636;7.692;2022-12-29T22:32:37;0.93;;;0.80;;
9473;SDS011;8865;47.636;7.692;2022-12-29T22:35:03;1.53;;;0.80;;
9473;SDS011;8865;47.636;7.692;2022-12-29T22:37:33;1.43;;;0.90;;
9473;SDS011;8865;47.636;7.692;2022-12-29T22:39:59;3.13;;;0.90;;
9473;SDS011;8865;47.636;7.692;2022-12-29T22:42:25;2.23;;;1.00;;
9473;SDS011;8865;47.636;7.692;2022-12-29T22:44:54;2.07;;;0.90;;
9473;SDS011;8865;47.636;7.692;2022-12-29T22:47:19;1.97;;;1.00;;
9473;SDS011;8865;47.636;7.692;2022-12-29T22:49:49;1.40;;;1.27;;
9473;SDS011;8865;47.636;7.692;2022-12-29T22:52:15;1.57;;;1.10;;
9473;SDS011;8865;47.636;7.692;2022-12-29T22:54:47;2.37;;;1.20;;
9473;SDS011;8865;47.636;7.692;2022-12-29T22:57:15;1.87;;;1.40;;
9473;SDS011;8865;47.636;7.692;2022-12-29T22:59:41;0.83;;;0.80;;
9473;SDS011;8865;47.636;7.692;2022-12-29T23:02:07;1.10;;;0.60;;
9473;SDS011;8865;47.636;7.692;2022-12-29T23:04:33;1.10;;;0.60;;
9473;SDS011;8865;47.636;7.692;2022-12-29T23:06:59;0.50;;;0.50;;
9473;SDS011;8865;47.636;7.692;2022-12-29T23:09:27;0.60;;;0.43;;
9473;SDS011;8865;47.636;7.692;2022-12-29T23:11:53;0.87;;;0.77;;
9473;SDS011;8865;47.636;7.692;2022-12-29T23:14:19;0.70;;;0.50;;
9473;SDS011;8865;47.636;7.692;2022-12-29T23:16:45;0.93;;;0.60;;
9473;SDS011;8865;47.636;7.692;2022-12-29T23:19:12;0.53;;;0.50;;
9473;SDS011;8865;47.636;7.692;2022-12-29T23:21:38;0.70;;;0.70;;
9473;SDS011;8865;47.636;7.692;2022-12-29T23:24:05;0.60;;;0.60;;
9473;SDS011;8865;47.636;7.692;2022-12-29T23:26:34;0.73;;;0.70;;
9473;SDS011;8865;47.636;7.692;2022-12-29T23:29:04;0.60;;;0.60;;
9473;SDS011;8865;47.636;7.692;2022-12-29T23:31:31;1.47;;;0.60;;
9473;SDS011;8865;47.636;7.692;2022-12-29T23:33:58;0.77;;;0.60;;
9473;SDS011;8865;47.636;7.692;2022-12-29T23:36:26;2.07;;;0.70;;
9473;SDS011;8865;47.636;7.692;2022-12-29T23:38:52;1.23;;;0.60;;
9473;SDS011;8865;47.636;7.692;2022-12-29T23:41:18;1.63;;;0.80;;
9473;SDS011;8865;47.636;7.692;2022-12-29T23:43:44;0.40;;;0.40;;
9473;SDS011;8865;47.636;7.692;2022-12-29T23:46:12;0.60;;;0.47;;
9473;SDS011;8865;47.636;7.692;2022-12-29T23:48:41;0.77;;;0.40;;
9473;SDS011;8865;47.636;7.692;2022-12-29T23:51:08;1.23;;;0.70;;
9473;SDS011;8865;47.636;7.692;2022-12-29T23:53:35;0.57;;;0.57;;
9473;SDS011;8865;47.636;7.692;2022-12-29T23:56:02;0.67;;;0.50;;
9473;SDS011;8865;47.636;7.692;2022-12-29T23:58:33;0.80;;;0.60;;
